createdAt,value
2022-11-29T00:01:11.486Z,99067.53
2022-11-29T00:03:38.217Z,99065.25
2022-11-29T00:06:20.226Z,99071.91
2022-11-29T00:08:47.598Z,99070.47
2022-11-29T00:11:38.723Z,99072.28
2022-11-29T00:14:06.550Z,99069.00
2022-11-29T00:16:33.486Z,99071.78
2022-11-29T00:19:00.314Z,99073.84
2022-11-29T00:21:26.956Z,99065.97
2022-11-29T00:23:53.704Z,99059.44
2022-11-29T00:26:20.383Z,99063.53
2022-11-29T00:28:46.959Z,99057.00
2022-11-29T00:31:16.166Z,99053.28
2022-11-29T00:33:42.845Z,99051.19
2022-11-29T00:36:10.183Z,99058.19
2022-11-29T00:38:36.843Z,99062.34
2022-11-29T00:41:03.615Z,99060.66
2022-11-29T00:43:30.335Z,99065.84
2022-11-29T00:45:57.164Z,99058.59
2022-11-29T00:48:24.761Z,99061.63
2022-11-29T00:50:51.427Z,99063.78
2022-11-29T00:53:18.021Z,99057.84
2022-11-29T00:55:47.316Z,99056.28
2022-11-29T00:58:14.044Z,99051.31
2022-11-29T01:00:40.685Z,99051.94
2022-11-29T01:03:07.687Z,99052.38
2022-11-29T01:05:34.229Z,99054.59
2022-11-29T01:08:01.090Z,99056.16
2022-11-29T01:10:28.040Z,99062.09
2022-11-29T01:12:55.299Z,99051.78
2022-11-29T01:15:22.201Z,99064.00
2022-11-29T01:17:49.467Z,99063.06
2022-11-29T01:20:17.152Z,99060.75
2022-11-29T01:22:43.734Z,99069.25
2022-11-29T01:25:12.444Z,99058.31
2022-11-29T01:27:39.716Z,99064.63
2022-11-29T01:30:08.317Z,99072.75
2022-11-29T01:32:35.316Z,99068.00
2022-11-29T01:35:02.280Z,99065.25
2022-11-29T01:37:29.836Z,99061.59
2022-11-29T01:39:56.517Z,99061.84
2022-11-29T01:42:23.419Z,99064.75
2022-11-29T01:44:49.903Z,99060.63
2022-11-29T01:47:19.625Z,99068.00
2022-11-29T01:49:49.685Z,99062.19
2022-11-29T01:52:34.228Z,99066.69
2022-11-29T01:55:05.433Z,99067.16
2022-11-29T01:57:35.187Z,99068.13
2022-11-29T02:00:08.668Z,99066.19
2022-11-29T02:02:47.144Z,99063.91
2022-11-29T02:05:16.789Z,99068.00
2022-11-29T02:07:46.517Z,99071.66
2022-11-29T02:10:15.639Z,99070.19
2022-11-29T02:13:33.012Z,99079.28
2022-11-29T02:16:05.002Z,99068.50
2022-11-29T02:19:09.273Z,99080.00
2022-11-29T02:21:44.802Z,99077.19
2022-11-29T02:24:25.468Z,99081.47
2022-11-29T02:27:18.385Z,99082.50
2022-11-29T02:29:53.656Z,99091.00
2022-11-29T02:32:35.451Z,99093.41
2022-11-29T02:35:07.874Z,99089.16
2022-11-29T02:38:11.793Z,99091.91
2022-11-29T02:41:10.841Z,99088.41
2022-11-29T02:43:40.471Z,99091.09
2022-11-29T02:46:10.221Z,99094.44
2022-11-29T02:48:50.793Z,99099.16
2022-11-29T02:51:43.825Z,99096.41
2022-11-29T02:54:26.263Z,99103.75
2022-11-29T02:57:21.604Z,99098.66
2022-11-29T03:00:02.219Z,99099.88
2022-11-29T03:02:28.717Z,99100.59
2022-11-29T03:04:57.992Z,99104.53
2022-11-29T03:07:46.821Z,99103.34
2022-11-29T03:10:34.547Z,99105.31
2022-11-29T03:13:05.215Z,99106.59
2022-11-29T03:15:44.708Z,99107.44
2022-11-29T03:18:32.855Z,99118.97
2022-11-29T03:21:23.768Z,99115.94
2022-11-29T03:23:56.871Z,99111.34
2022-11-29T03:26:31.986Z,99109.78
2022-11-29T03:29:26.938Z,99107.91
2022-11-29T03:32:08.979Z,99105.75
2022-11-29T03:35:02.368Z,99115.94
2022-11-29T03:37:44.047Z,99112.66
2022-11-29T03:40:14.732Z,99121.78
2022-11-29T03:42:41.178Z,99120.75
2022-11-29T03:45:20.014Z,99128.03
2022-11-29T03:47:57.871Z,99125.09
2022-11-29T03:50:31.879Z,99126.41
2022-11-29T03:53:12.734Z,99120.72
2022-11-29T03:56:01.332Z,99122.91
2022-11-29T03:58:39.374Z,99121.09
2022-11-29T04:01:21.277Z,99120.94
2022-11-29T04:04:08.831Z,99126.53
2022-11-29T04:07:17.551Z,99125.09
2022-11-29T04:10:05.648Z,99126.41
2022-11-29T04:12:49.219Z,99121.44
2022-11-29T04:15:40.684Z,99122.44
2022-11-29T04:18:38.359Z,99119.97
2022-11-29T04:21:29.485Z,99126.59
2022-11-29T04:24:40.323Z,99134.22
2022-11-29T04:27:12.952Z,99130.00
2022-11-29T04:30:02.045Z,99129.91
2022-11-29T04:33:03.013Z,99134.22
2022-11-29T04:35:32.208Z,99133.69
2022-11-29T04:38:01.731Z,99143.00
2022-11-29T04:40:53.086Z,99133.25
2022-11-29T04:43:41.368Z,99143.06
2022-11-29T04:46:53.010Z,99143.09
2022-11-29T04:49:34.576Z,99149.63
2022-11-29T04:52:38.913Z,99145.09
2022-11-29T04:55:20.792Z,99155.34
2022-11-29T04:58:03.946Z,99151.34
2022-11-29T05:00:39.655Z,99145.25
2022-11-29T05:03:38.947Z,99151.09
2022-11-29T05:06:17.788Z,99153.03
2022-11-29T05:09:06.043Z,99154.19
2022-11-29T05:11:44.649Z,99162.25
2022-11-29T05:14:17.762Z,99150.53
2022-11-29T05:16:53.492Z,99157.38
2022-11-29T05:19:19.993Z,99161.91
2022-11-29T05:22:05.242Z,99166.59
2022-11-29T05:24:53.712Z,99158.41
2022-11-29T05:27:28.312Z,99171.72
2022-11-29T05:30:21.189Z,99170.56
2022-11-29T05:32:50.822Z,99160.56
2022-11-29T05:35:26.232Z,99176.66
2022-11-29T05:37:56.898Z,99175.72
2022-11-29T05:40:26.343Z,99177.63
2022-11-29T05:43:12.866Z,99174.81
2022-11-29T05:45:51.221Z,99183.97
2022-11-29T05:48:28.593Z,99185.66
2022-11-29T05:51:13.933Z,99183.13
2022-11-29T05:53:54.999Z,99182.34
2022-11-29T05:56:33.588Z,99186.63
2022-11-29T05:59:08.191Z,99185.28
2022-11-29T06:01:42.053Z,99185.16
2022-11-29T06:04:34.371Z,99189.75
2022-11-29T06:07:22.618Z,99190.25
2022-11-29T06:10:00.534Z,99193.13
2022-11-29T06:12:31.275Z,99198.00
2022-11-29T06:15:17.487Z,99195.22
2022-11-29T06:18:06.748Z,99195.66
2022-11-29T06:20:42.717Z,99204.81
2022-11-29T06:23:09.239Z,99206.94
2022-11-29T06:26:03.487Z,99210.41
2022-11-29T06:29:01.952Z,99214.22
2022-11-29T06:31:34.262Z,99221.03
2022-11-29T06:34:16.392Z,99218.38
2022-11-29T06:36:48.966Z,99225.31
2022-11-29T06:39:16.179Z,99224.34
2022-11-29T06:41:43.254Z,99221.88
2022-11-29T06:44:10.684Z,99233.88
2022-11-29T06:46:56.162Z,99234.97
2022-11-29T06:49:27.088Z,99234.97
2022-11-29T06:51:59.263Z,99237.44
2022-11-29T06:54:38.913Z,99234.84
2022-11-29T06:57:24.681Z,99233.34
2022-11-29T07:00:20.552Z,99238.22
2022-11-29T07:03:11.180Z,99239.22
2022-11-29T07:05:38.279Z,99249.00
2022-11-29T07:08:25.430Z,99241.47
2022-11-29T07:10:54.911Z,99249.19
2022-11-29T07:13:21.813Z,99253.72
2022-11-29T07:15:51.558Z,99242.97
2022-11-29T07:18:46.992Z,99256.25
2022-11-29T07:21:25.554Z,99259.88
2022-11-29T07:24:02.697Z,99259.47
2022-11-29T07:26:33.295Z,99264.13
2022-11-29T07:28:59.692Z,99265.72
2022-11-29T07:31:43.561Z,99262.75
2022-11-29T07:34:49.936Z,99273.47
2022-11-29T07:38:00.604Z,99282.53
2022-11-29T07:40:49.688Z,99276.69
2022-11-29T07:43:40.335Z,99271.25
2022-11-29T07:46:06.997Z,99281.88
2022-11-29T07:48:33.556Z,99283.47
2022-11-29T07:51:00.934Z,99281.13
2022-11-29T07:53:28.943Z,99287.22
2022-11-29T07:55:55.575Z,99286.69
2022-11-29T07:58:22.175Z,99290.53
2022-11-29T08:00:49.051Z,99292.84
2022-11-29T08:03:15.704Z,99293.66
2022-11-29T08:05:47.251Z,99285.38
2022-11-29T08:08:14.161Z,99293.66
2022-11-29T08:10:40.736Z,99298.53
2022-11-29T08:13:07.345Z,99293.38
2022-11-29T08:15:33.979Z,99300.34
2022-11-29T08:18:02.362Z,99296.84
2022-11-29T08:20:28.928Z,99297.47
2022-11-29T08:22:57.396Z,99296.16
2022-11-29T08:25:24.582Z,99294.97
2022-11-29T08:27:51.706Z,99296.84
2022-11-29T08:30:21.981Z,99294.13
2022-11-29T08:32:51.526Z,99301.78
2022-11-29T08:35:23.366Z,99291.63
2022-11-29T08:37:50.507Z,99299.78
2022-11-29T08:40:17.812Z,99299.91
2022-11-29T08:42:44.469Z,99305.34
2022-11-29T08:45:11.856Z,99299.69
2022-11-29T08:47:39.147Z,99308.63
2022-11-29T08:50:15.047Z,99304.88
2022-11-29T08:53:06.077Z,99306.03
2022-11-29T08:55:39.851Z,99305.84
2022-11-29T08:58:09.386Z,99305.50
2022-11-29T09:00:37.429Z,99312.19
2022-11-29T09:03:24.396Z,99313.81
2022-11-29T09:05:52.246Z,99316.66
2022-11-29T09:08:19.017Z,99322.66
2022-11-29T09:10:46.015Z,99325.97
2022-11-29T09:13:12.648Z,99319.91
2022-11-29T09:15:41.847Z,99328.41
2022-11-29T09:18:08.510Z,99332.47
2022-11-29T09:20:35.203Z,99335.06
2022-11-29T09:23:01.778Z,99332.16
2022-11-29T09:25:28.686Z,99337.13
2022-11-29T09:27:58.163Z,99330.84
2022-11-29T09:30:24.910Z,99330.00
2022-11-29T09:32:51.616Z,99327.53
2022-11-29T09:35:18.283Z,99330.06
2022-11-29T09:37:44.883Z,99331.88
2022-11-29T09:40:18.156Z,99339.34
2022-11-29T09:42:52.285Z,99326.34
2022-11-29T09:45:30.306Z,99338.38
2022-11-29T09:48:33.011Z,99339.78
2022-11-29T09:51:24.161Z,99337.66
2022-11-29T09:53:50.679Z,99342.50
2022-11-29T09:56:41.215Z,99328.34
2022-11-29T09:59:27.763Z,99334.91
2022-11-29T10:02:02.698Z,99330.72
2022-11-29T10:04:36.352Z,99334.31
2022-11-29T10:07:21.553Z,99333.88
2022-11-29T10:09:56.100Z,99343.88
2022-11-29T10:12:35.965Z,99339.63
2022-11-29T10:15:19.630Z,99335.94
2022-11-29T10:17:55.267Z,99344.72
2022-11-29T10:20:29.831Z,99345.44
2022-11-29T10:23:21.924Z,99341.72
2022-11-29T10:25:51.583Z,99332.91
2022-11-29T10:28:25.817Z,99342.22
2022-11-29T10:30:57.465Z,99334.63
2022-11-29T10:33:29.699Z,99341.41
2022-11-29T10:35:59.566Z,99339.97
2022-11-29T10:38:31.112Z,99337.44
2022-11-29T10:41:05.432Z,99337.56
2022-11-29T10:43:32.017Z,99338.50
2022-11-29T10:45:59.102Z,99339.28
2022-11-29T10:48:31.696Z,99332.72
2022-11-29T10:50:58.665Z,99335.06
2022-11-29T10:53:35.936Z,99339.53
2022-11-29T10:56:14.049Z,99334.59
2022-11-29T10:59:06.102Z,99343.59
2022-11-29T11:01:38.262Z,99340.78
2022-11-29T11:04:09.842Z,99338.09
2022-11-29T11:06:49.660Z,99336.88
2022-11-29T11:09:21.086Z,99343.44
2022-11-29T11:11:57.075Z,99334.72
2022-11-29T11:14:27.222Z,99342.97
2022-11-29T11:16:54.055Z,99335.69
2022-11-29T11:19:32.672Z,99342.50
2022-11-29T11:22:03.996Z,99342.72
2022-11-29T11:24:39.272Z,99345.25
2022-11-29T11:27:05.927Z,99338.50
2022-11-29T11:29:37.801Z,99344.44
2022-11-29T11:32:05.148Z,99346.03
2022-11-29T11:34:36.123Z,99351.22
2022-11-29T11:37:14.810Z,99355.25
2022-11-29T11:39:43.265Z,99347.59
2022-11-29T11:42:35.163Z,99345.53
2022-11-29T11:45:04.490Z,99347.66
2022-11-29T11:47:35.754Z,99353.16
2022-11-29T11:50:02.480Z,99347.19
2022-11-29T11:52:30.598Z,99348.19
2022-11-29T11:55:04.694Z,99358.25
2022-11-29T11:57:31.731Z,99346.03
2022-11-29T12:00:06.444Z,99355.00
2022-11-29T12:02:40.719Z,99350.88
2022-11-29T12:05:16.993Z,99354.53
2022-11-29T12:10:37.540Z,99354.75
2022-11-29T12:13:04.911Z,99352.06
2022-11-29T12:15:39.781Z,99361.78
2022-11-29T12:18:36.067Z,99359.13
2022-11-29T12:21:14.217Z,99366.06
2022-11-29T12:23:47.559Z,99368.94
2022-11-29T12:26:55.211Z,99369.78
2022-11-29T12:29:20.025Z,99363.53
2022-11-29T12:32:08.159Z,99362.91
2022-11-29T12:34:43.735Z,99368.59
2022-11-29T12:37:30.182Z,99365.88
2022-11-29T12:40:13.762Z,99368.34
2022-11-29T12:43:01.560Z,99370.41
2022-11-29T12:45:40.558Z,99374.88
2022-11-29T12:48:19.319Z,99374.03
2022-11-29T12:51:12.950Z,99378.19
2022-11-29T12:54:07.488Z,99375.63
2022-11-29T12:57:04.171Z,99379.63
2022-11-29T12:59:30.708Z,99382.88
2022-11-29T13:02:03.930Z,99386.53
2022-11-29T13:04:36.631Z,99387.47
2022-11-29T13:07:22.406Z,99392.44
2022-11-29T13:10:04.510Z,99395.56
2022-11-29T13:12:39.792Z,99397.88
2022-11-29T13:15:14.817Z,99392.38
2022-11-29T13:17:48.776Z,99394.75
2022-11-29T13:20:30.148Z,99398.25
2022-11-29T13:23:02.968Z,99400.34
2022-11-29T13:25:42.718Z,99400.22
2022-11-29T13:28:26.325Z,99402.41
2022-11-29T13:30:56.936Z,99400.22
2022-11-29T13:33:24.805Z,99400.03
2022-11-29T13:36:15.679Z,99407.25
2022-11-29T13:38:58.117Z,99405.75
2022-11-29T13:41:32.105Z,99415.34
2022-11-29T13:44:13.187Z,99409.41
2022-11-29T13:46:39.744Z,99404.91
2022-11-29T13:49:06.502Z,99404.19
2022-11-29T13:51:37.291Z,99412.00
2022-11-29T13:54:29.043Z,99413.81
2022-11-29T13:57:09.412Z,99424.13
2022-11-29T13:59:44.268Z,99419.19
2022-11-29T14:02:43.445Z,99420.03
2022-11-29T14:05:26.054Z,99423.16
2022-11-29T14:08:37.711Z,99421.47
2022-11-29T14:11:14.114Z,99425.31
2022-11-29T14:14:07.549Z,99424.22
2022-11-29T14:16:37.831Z,99415.97
2022-11-29T14:19:10.263Z,99430.81
2022-11-29T14:22:07.274Z,99424.81
2022-11-29T14:24:36.848Z,99427.19
2022-11-29T14:27:06.638Z,99425.44
2022-11-29T14:29:52.531Z,99431.31
2022-11-29T14:32:25.196Z,99422.59
2022-11-29T14:35:11.820Z,99434.56
2022-11-29T14:38:02.855Z,99427.25
2022-11-29T14:40:43.248Z,99428.78
2022-11-29T14:43:19.965Z,99433.56
2022-11-29T14:45:46.915Z,99425.28
2022-11-29T14:48:44.298Z,99434.81
2022-11-29T14:51:19.634Z,99433.50
2022-11-29T14:53:49.740Z,99436.22
2022-11-29T14:56:31.721Z,99442.91
2022-11-29T14:59:35.807Z,99439.78
2022-11-29T15:02:07.136Z,99432.19
2022-11-29T15:04:35.617Z,99444.66
2022-11-29T15:07:03.527Z,99437.19
2022-11-29T15:09:34.178Z,99445.06
2022-11-29T15:12:08.583Z,99443.16
2022-11-29T15:14:44.738Z,99447.38
2022-11-29T15:17:56.349Z,99446.59
2022-11-29T15:20:34.828Z,99451.41
2022-11-29T15:23:07.172Z,99453.75
2022-11-29T15:25:34.462Z,99465.56
2022-11-29T15:28:03.774Z,99461.50
2022-11-29T15:30:36.409Z,99466.50
2022-11-29T15:33:21.007Z,99467.53
2022-11-29T15:35:52.799Z,99470.06
2022-11-29T15:38:21.675Z,99470.91
2022-11-29T15:40:54.131Z,99476.56
2022-11-29T15:43:26.832Z,99479.09
2022-11-29T15:45:55.543Z,99486.66
2022-11-29T15:48:23.921Z,99483.50
2022-11-29T15:50:55.918Z,99477.81
2022-11-29T15:53:40.567Z,99485.47
2022-11-29T15:56:24.993Z,99485.84
2022-11-29T15:58:59.487Z,99487.97
2022-11-29T16:01:26.453Z,99492.66
2022-11-29T16:03:55.689Z,99500.78
2022-11-29T16:06:41.524Z,99488.09
2022-11-29T16:09:13.057Z,99493.53
2022-11-29T16:11:39.815Z,99493.09
2022-11-29T16:14:22.626Z,99508.25
2022-11-29T16:16:52.715Z,99500.44
2022-11-29T16:19:25.818Z,99500.56
2022-11-29T16:22:23.271Z,99506.50
2022-11-29T16:25:05.816Z,99509.94
2022-11-29T16:27:36.340Z,99506.94
2022-11-29T16:30:04.847Z,99508.84
2022-11-29T16:32:42.611Z,99510.13
2022-11-29T16:35:20.861Z,99513.97
2022-11-29T16:37:48.234Z,99518.28
2022-11-29T16:40:22.768Z,99517.84
2022-11-29T16:43:04.639Z,99520.59
2022-11-29T16:45:34.430Z,99525.16
2022-11-29T16:48:02.796Z,99527.94
2022-11-29T16:50:31.400Z,99532.75
2022-11-29T16:53:34.984Z,99528.25
2022-11-29T16:56:01.806Z,99526.25
2022-11-29T16:58:28.551Z,99534.22
2022-11-29T17:00:55.531Z,99533.25
2022-11-29T17:03:22.543Z,99538.47
2022-11-29T17:05:49.958Z,99532.63
2022-11-29T17:08:16.527Z,99532.53
2022-11-29T17:10:43.103Z,99531.13
2022-11-29T17:13:11.408Z,99542.94
2022-11-29T17:15:37.944Z,99541.88
2022-11-29T17:18:04.597Z,99537.75
2022-11-29T17:20:31.152Z,99541.97
2022-11-29T17:22:57.844Z,99544.66
2022-11-29T17:25:24.409Z,99546.47
2022-11-29T17:27:51.147Z,99554.16
2022-11-29T17:30:17.931Z,99546.16
2022-11-29T17:32:44.708Z,99542.34
2022-11-29T17:35:11.455Z,99550.75
2022-11-29T17:37:37.997Z,99545.94
2022-11-29T17:40:05.363Z,99551.25
2022-11-29T17:42:31.907Z,99556.19
2022-11-29T17:44:58.410Z,99559.78
2022-11-29T17:47:25.022Z,99568.41
2022-11-29T17:49:51.550Z,99564.25
2022-11-29T17:52:18.089Z,99565.56
2022-11-29T17:54:44.640Z,99574.84
2022-11-29T17:57:11.244Z,99579.19
2022-11-29T17:59:37.810Z,99574.91
2022-11-29T18:02:04.614Z,99578.22
2022-11-29T18:04:31.321Z,99580.56
2022-11-29T18:06:58.647Z,99580.47
2022-11-29T18:09:25.241Z,99578.75
2022-11-29T18:11:52.473Z,99580.88
2022-11-29T18:14:22.925Z,99579.28
2022-11-29T18:16:50.111Z,99580.78
2022-11-29T18:19:19.034Z,99579.50
2022-11-29T18:21:46.142Z,99574.84
2022-11-29T18:24:13.218Z,99581.09
2022-11-29T18:26:39.977Z,99582.50
2022-11-29T18:29:07.375Z,99577.50
2022-11-29T18:31:40.024Z,99581.63
2022-11-29T18:34:09.930Z,99585.16
2022-11-29T18:36:45.377Z,99589.31
2022-11-29T18:39:14.327Z,99580.78
2022-11-29T18:41:43.649Z,99586.13
2022-11-29T18:44:13.051Z,99583.88
2022-11-29T18:46:41.510Z,99591.13
2022-11-29T18:49:10.656Z,99593.38
2022-11-29T18:51:38.499Z,99591.09
2022-11-29T18:54:05.864Z,99588.69
2022-11-29T18:56:34.504Z,99592.41
2022-11-29T18:59:16.810Z,99582.91
2022-11-29T19:01:45.360Z,99588.75
2022-11-29T19:04:14.904Z,99590.91
2022-11-29T19:06:42.333Z,99588.34
2022-11-29T19:09:16.884Z,99591.31
2022-11-29T19:11:43.738Z,99594.31
2022-11-29T19:14:12.450Z,99600.09
2022-11-29T19:16:42.042Z,99601.78
2022-11-29T19:19:08.681Z,99596.97
2022-11-29T19:21:35.587Z,99604.97
2022-11-29T19:24:04.574Z,99601.97
2022-11-29T19:26:33.369Z,99603.59
2022-11-29T19:29:01.736Z,99601.00
2022-11-29T19:31:29.487Z,99609.00
2022-11-29T19:33:57.268Z,99606.16
2022-11-29T19:36:29.854Z,99606.69
2022-11-29T19:38:59.778Z,99606.47
2022-11-29T19:41:28.538Z,99614.56
2022-11-29T19:44:01.671Z,99615.41
2022-11-29T19:46:31.756Z,99606.78
2022-11-29T19:48:59.783Z,99599.53
2022-11-29T19:51:28.754Z,99610.09
2022-11-29T19:53:57.811Z,99615.94
2022-11-29T19:56:24.701Z,99611.88
2022-11-29T19:58:52.101Z,99614.22
2022-11-29T20:01:22.748Z,99625.41
2022-11-29T20:03:49.517Z,99620.44
2022-11-29T20:06:17.431Z,99617.22
2022-11-29T20:08:44.802Z,99625.44
2022-11-29T20:11:15.412Z,99631.69
2022-11-29T20:13:43.959Z,99624.44
2022-11-29T20:16:15.901Z,99633.41
2022-11-29T20:18:50.353Z,99631.59
2022-11-29T20:21:30.298Z,99633.94
2022-11-29T20:23:59.205Z,99635.09
2022-11-29T20:26:27.302Z,99642.91
2022-11-29T20:28:54.032Z,99642.47
2022-11-29T20:31:23.211Z,99643.97
2022-11-29T20:33:52.646Z,99646.28
2022-11-29T20:36:38.263Z,99653.53
2022-11-29T20:39:31.672Z,99657.25
2022-11-29T20:42:29.479Z,99647.91
2022-11-29T20:45:05.822Z,99652.03
2022-11-29T20:47:53.853Z,99643.69
2022-11-29T20:50:26.420Z,99643.94
2022-11-29T20:53:27.641Z,99657.31
2022-11-29T20:55:54.213Z,99655.34
2022-11-29T20:58:21.216Z,99651.91
2022-11-29T21:00:48.050Z,99649.00
2022-11-29T21:03:16.319Z,99654.44
2022-11-29T21:05:43.314Z,99655.69
2022-11-29T21:08:09.891Z,99654.22
2022-11-29T21:10:36.696Z,99648.56
2022-11-29T21:13:03.444Z,99654.34
2022-11-29T21:15:30.600Z,99651.94
2022-11-29T21:17:57.420Z,99658.59
2022-11-29T21:20:26.317Z,99652.34
2022-11-29T21:23:01.953Z,99661.84
2022-11-29T21:25:45.610Z,99664.78
2022-11-29T21:28:14.420Z,99658.72
2022-11-29T21:30:42.385Z,99662.22
2022-11-29T21:33:09.785Z,99659.78
2022-11-29T21:35:39.705Z,99658.84
2022-11-29T21:38:12.448Z,99663.19
2022-11-29T21:40:38.981Z,99660.13
2022-11-29T21:43:05.654Z,99670.94
2022-11-29T21:45:32.231Z,99667.94
2022-11-29T21:48:02.051Z,99668.97
2022-11-29T21:50:28.614Z,99668.00
2022-11-29T21:52:56.019Z,99663.38
2022-11-29T21:55:22.598Z,99674.94
2022-11-29T21:57:49.135Z,99675.31
2022-11-29T22:00:16.177Z,99677.00
2022-11-29T22:02:42.785Z,99677.16
2022-11-29T22:05:09.733Z,99671.63
2022-11-29T22:07:36.398Z,99672.91
2022-11-29T22:10:09.925Z,99668.44
2022-11-29T22:12:38.354Z,99663.97
2022-11-29T22:15:05.481Z,99665.59
2022-11-29T22:17:32.047Z,99670.53
2022-11-29T22:19:58.578Z,99665.78
2022-11-29T22:22:28.094Z,99671.97
2022-11-29T22:24:54.951Z,99667.03
2022-11-29T22:27:21.496Z,99666.00
2022-11-29T22:29:48.396Z,99672.13
2022-11-29T22:32:15.070Z,99672.06
2022-11-29T22:34:41.605Z,99676.00
2022-11-29T22:37:08.138Z,99677.94
2022-11-29T22:39:34.693Z,99677.38
2022-11-29T22:42:01.284Z,99677.16
2022-11-29T22:44:27.849Z,99672.06
2022-11-29T22:46:54.491Z,99673.66
2022-11-29T22:49:21.249Z,99670.38
2022-11-29T22:51:47.864Z,99664.44
2022-11-29T22:54:17.932Z,99668.16
2022-11-29T22:56:46.108Z,99665.13
2022-11-29T22:59:12.982Z,99669.19
2022-11-29T23:01:40.904Z,99676.06
2022-11-29T23:04:10.662Z,99672.34
2022-11-29T23:06:40.741Z,99672.75
2022-11-29T23:09:21.176Z,99679.66
2022-11-29T23:11:53.853Z,99685.47
2022-11-29T23:14:20.623Z,99681.47
2022-11-29T23:16:47.293Z,99676.06
2022-11-29T23:19:16.129Z,99677.22
2022-11-29T23:21:45.394Z,99686.50
2022-11-29T23:24:12.809Z,99689.25
2022-11-29T23:26:41.493Z,99680.63
2022-11-29T23:29:11.692Z,99683.00
2022-11-29T23:31:39.039Z,99691.25
2022-11-29T23:34:05.689Z,99691.94
2022-11-29T23:36:32.507Z,99681.00
2022-11-29T23:38:59.090Z,99680.56
2022-11-29T23:41:25.767Z,99678.75
2022-11-29T23:43:52.445Z,99673.59
2022-11-29T23:46:21.126Z,99683.00
2022-11-29T23:48:48.433Z,99687.84
2022-11-29T23:51:15.762Z,99682.25
2022-11-29T23:53:42.750Z,99684.69
2022-11-29T23:56:15.971Z,99688.59
2022-11-29T23:58:43.791Z,99677.94
